Startpagina
METAR-TAF:

METAR-TAF

Vliegvelden :

McKinley Park, Alaska, Verenigde Staten

breedte: 63-44N, lengte: 148-55W, hoogte: 524 m

Actueel weer

Dit bericht is 20 minuten geleden gemaakt, om 12:56 UTC
Wind 7 kt uit het noorden
Temperatuur -19°C
Vochtigheid 84%
Druk 992 hPa
Zicht: 6.4 km
Gebroken wolken op 1700 ft
Geheel bewolkt op 2500 ft
lichte sneeuw, nevel

METAR: PAIN 171256Z AUTO 01007KT 4SM -SN BR BKN017 OVC025 M19/M21 A2929 RMK AO2 SLP977 P0000 T11891211 FZRANO

Tijdstip: 04:16 (13:16 UTC)


TAF: ontbreekt

Waarnemingen en weersverwachtingen van meer dan 4000 vliegvelden (METAR en TAF).

De beschikbare stations zijn de gele en rode punten op de kaart.

Ga met uw muis naar het station om de naam te zien.

Klik dan om waarnemingen en weersverwachtingen te zien.

kaart wijzigen: klik op de groene knoppen met een zwart kruis om in te zoomen, op de groene knop met een streepje om uit te zoomen of op de groene pijlen voor aangrenzende kaarten.


METAR-TAF: